sensor_id;sensor_type;location;lat;lon;timestamp;temperature;humidity
23271;DHT22;11804;51.118;17.058;2022-07-09T00:00:40;18.60;99.90
23271;DHT22;11804;51.118;17.058;2022-07-09T00:03:07;18.50;99.90
23271;DHT22;11804;51.118;17.058;2022-07-09T00:05:35;18.40;99.90
23271;DHT22;11804;51.118;17.058;2022-07-09T00:08:03;18.40;99.90
23271;DHT22;11804;51.118;17.058;2022-07-09T00:10:30;18.40;99.90
23271;DHT22;11804;51.118;17.058;2022-07-09T00:12:58;18.30;99.90
23271;DHT22;11804;51.118;17.058;2022-07-09T00:15:25;18.30;99.90
23271;DHT22;11804;51.118;17.058;2022-07-09T00:17:53;18.30;99.90
23271;DHT22;11804;51.118;17.058;2022-07-09T00:20:21;18.40;99.90
23271;DHT22;11804;51.118;17.058;2022-07-09T00:22:48;18.30;99.90
23271;DHT22;11804;51.118;17.058;2022-07-09T00:25:16;18.20;99.90
23271;DHT22;11804;51.118;17.058;2022-07-09T00:27:43;18.20;99.90
23271;DHT22;11804;51.118;17.058;2022-07-09T00:30:11;18.30;99.90
23271;DHT22;11804;51.118;17.058;2022-07-09T00:32:39;18.30;99.90
23271;DHT22;11804;51.118;17.058;2022-07-09T00:35:06;18.10;99.90
23271;DHT22;11804;51.118;17.058;2022-07-09T00:37:34;18.10;99.90
23271;DHT22;11804;51.118;17.058;2022-07-09T00:40:02;18.00;99.90
23271;DHT22;11804;51.118;17.058;2022-07-09T00:42:29;18.00;99.90
23271;DHT22;11804;51.118;17.058;2022-07-09T00:44:58;18.00;99.90
23271;DHT22;11804;51.118;17.058;2022-07-09T00:47:25;18.00;99.90
23271;DHT22;11804;51.118;17.058;2022-07-09T00:49:54;18.00;99.90
23271;DHT22;11804;51.118;17.058;2022-07-09T00:52:23;18.10;99.90
23271;DHT22;11804;51.118;17.058;2022-07-09T00:54:51;18.10;99.90
23271;DHT22;11804;51.118;17.058;2022-07-09T00:57:18;18.10;99.90
23271;DHT22;11804;51.118;17.058;2022-07-09T00:59:46;18.10;99.90
23271;DHT22;11804;51.118;17.058;2022-07-09T01:02:14;18.10;99.90
23271;DHT22;11804;51.118;17.058;2022-07-09T01:04:42;18.10;99.90
23271;DHT22;11804;51.118;17.058;2022-07-09T01:07:09;18.00;99.90
23271;DHT22;11804;51.118;17.058;2022-07-09T01:09:38;17.90;99.90
23271;DHT22;11804;51.118;17.058;2022-07-09T01:12:07;17.80;99.90
23271;DHT22;11804;51.118;17.058;2022-07-09T01:14:35;17.70;99.90
23271;DHT22;11804;51.118;17.058;2022-07-09T01:17:04;17.70;99.90
23271;DHT22;11804;51.118;17.058;2022-07-09T01:19:34;17.70;99.90
23271;DHT22;11804;51.118;17.058;2022-07-09T01:22:02;17.60;99.90
23271;DHT22;11804;51.118;17.058;2022-07-09T01:24:30;17.50;99.90
23271;DHT22;11804;51.118;17.058;2022-07-09T01:26:59;17.50;99.90
23271;DHT22;11804;51.118;17.058;2022-07-09T01:29:28;17.40;99.90
23271;DHT22;11804;51.118;17.058;2022-07-09T01:31:55;17.40;99.90
23271;DHT22;11804;51.118;17.058;2022-07-09T01:34:23;17.40;99.90
23271;DHT22;11804;51.118;17.058;2022-07-09T01:36:50;17.40;99.90
23271;DHT22;11804;51.118;17.058;2022-07-09T01:39:18;17.40;99.90
23271;DHT22;11804;51.118;17.058;2022-07-09T01:41:46;17.40;99.90
23271;DHT22;11804;51.118;17.058;2022-07-09T01:44:13;17.30;99.90
23271;DHT22;11804;51.118;17.058;2022-07-09T01:46:41;17.30;99.90
23271;DHT22;11804;51.118;17.058;2022-07-09T01:49:08;17.30;99.90
23271;DHT22;11804;51.118;17.058;2022-07-09T01:51:36;17.30;99.90
23271;DHT22;11804;51.118;17.058;2022-07-09T01:54:03;17.30;99.90
23271;DHT22;11804;51.118;17.058;2022-07-09T01:56:31;17.30;99.90
23271;DHT22;11804;51.118;17.058;2022-07-09T01:59:00;17.40;99.90
23271;DHT22;11804;51.118;17.058;2022-07-09T02:01:27;17.50;99.90
23271;DHT22;11804;51.118;17.058;2022-07-09T02:03:55;17.60;99.90
23271;DHT22;11804;51.118;17.058;2022-07-09T02:06:22;17.70;99.90
23271;DHT22;11804;51.118;17.058;2022-07-09T02:08:51;17.70;99.90
23271;DHT22;11804;51.118;17.058;2022-07-09T02:11:19;17.70;99.90
23271;DHT22;11804;51.118;17.058;2022-07-09T02:13:47;17.70;99.90
23271;DHT22;11804;51.118;17.058;2022-07-09T02:16:14;17.80;99.90
23271;DHT22;11804;51.118;17.058;2022-07-09T02:18:42;17.80;99.90
23271;DHT22;11804;51.118;17.058;2022-07-09T02:21:09;17.80;99.90
23271;DHT22;11804;51.118;17.058;2022-07-09T02:23:38;17.80;99.90
23271;DHT22;11804;51.118;17.058;2022-07-09T02:26:05;17.70;99.90
23271;DHT22;11804;51.118;17.058;2022-07-09T02:28:33;17.70;99.90
23271;DHT22;11804;51.118;17.058;2022-07-09T02:31:00;17.70;99.90
23271;DHT22;11804;51.118;17.058;2022-07-09T02:33:28;17.70;99.90
23271;DHT22;11804;51.118;17.058;2022-07-09T02:35:57;17.70;99.90
23271;DHT22;11804;51.118;17.058;2022-07-09T02:38:25;17.80;99.90
23271;DHT22;11804;51.118;17.058;2022-07-09T02:40:52;17.80;99.90
23271;DHT22;11804;51.118;17.058;2022-07-09T02:43:20;17.70;99.90
23271;DHT22;11804;51.118;17.058;2022-07-09T02:45:47;17.70;99.90
23271;DHT22;11804;51.118;17.058;2022-07-09T02:48:16;17.70;99.90
23271;DHT22;11804;51.118;17.058;2022-07-09T02:50:44;17.60;99.90
23271;DHT22;11804;51.118;17.058;2022-07-09T02:53:11;17.60;99.90
23271;DHT22;11804;51.118;17.058;2022-07-09T02:55:39;17.60;99.90
23271;DHT22;11804;51.118;17.058;2022-07-09T02:58:07;17.60;99.90
23271;DHT22;11804;51.118;17.058;2022-07-09T03:00:34;17.70;99.90
23271;DHT22;11804;51.118;17.058;2022-07-09T03:03:02;17.60;99.90
23271;DHT22;11804;51.118;17.058;2022-07-09T03:05:29;17.70;99.90
23271;DHT22;11804;51.118;17.058;2022-07-09T03:07:57;17.60;99.90
23271;DHT22;11804;51.118;17.058;2022-07-09T03:10:25;17.60;99.90
23271;DHT22;11804;51.118;17.058;2022-07-09T03:12:53;17.50;99.90
23271;DHT22;11804;51.118;17.058;2022-07-09T03:15:20;17.50;99.90
23271;DHT22;11804;51.118;17.058;2022-07-09T03:17:48;17.50;99.90
23271;DHT22;11804;51.118;17.058;2022-07-09T03:20:16;17.40;99.90
23271;DHT22;11804;51.118;17.058;2022-07-09T03:22:43;17.50;99.90
23271;DHT22;11804;51.118;17.058;2022-07-09T03:25:11;17.40;99.90
23271;DHT22;11804;51.118;17.058;2022-07-09T03:27:38;17.50;99.90
23271;DHT22;11804;51.118;17.058;2022-07-09T03:30:06;17.50;99.90
23271;DHT22;11804;51.118;17.058;2022-07-09T03:32:34;17.50;99.90
23271;DHT22;11804;51.118;17.058;2022-07-09T03:35:02;17.60;99.90
23271;DHT22;11804;51.118;17.058;2022-07-09T03:37:29;17.90;99.90
23271;DHT22;11804;51.118;17.058;2022-07-09T03:39:56;18.30;99.90
23271;DHT22;11804;51.118;17.058;2022-07-09T03:42:24;18.70;99.90
23271;DHT22;11804;51.118;17.058;2022-07-09T03:44:51;19.00;99.90
23271;DHT22;11804;51.118;17.058;2022-07-09T03:47:19;19.40;99.90
23271;DHT22;11804;51.118;17.058;2022-07-09T03:49:47;20.10;99.90
23271;DHT22;11804;51.118;17.058;2022-07-09T03:52:14;21.00;97.10
23271;DHT22;11804;51.118;17.058;2022-07-09T03:54:42;21.50;93.70
23271;DHT22;11804;51.118;17.058;2022-07-09T03:57:10;21.70;92.60
23271;DHT22;11804;51.118;17.058;2022-07-09T03:59:38;21.80;90.80
23271;DHT22;11804;51.118;17.058;2022-07-09T04:02:05;21.90;90.10
23271;DHT22;11804;51.118;17.058;2022-07-09T04:04:34;21.50;91.00
23271;DHT22;11804;51.118;17.058;2022-07-09T04:07:01;21.20;92.70
23271;DHT22;11804;51.118;17.058;2022-07-09T04:09:29;20.90;93.60
23271;DHT22;11804;51.118;17.058;2022-07-09T04:11:57;20.80;94.00
23271;DHT22;11804;51.118;17.058;2022-07-09T04:14:24;20.60;95.30
23271;DHT22;11804;51.118;17.058;2022-07-09T04:16:52;20.20;97.80
23271;DHT22;11804;51.118;17.058;2022-07-09T04:19:19;20.00;99.30
23271;DHT22;11804;51.118;17.058;2022-07-09T04:21:47;19.60;99.90
23271;DHT22;11804;51.118;17.058;2022-07-09T04:24:17;19.70;99.90
23271;DHT22;11804;51.118;17.058;2022-07-09T04:26:46;19.50;99.90
23271;DHT22;11804;51.118;17.058;2022-07-09T04:29:13;19.30;99.90
23271;DHT22;11804;51.118;17.058;2022-07-09T04:31:41;19.10;99.90
23271;DHT22;11804;51.118;17.058;2022-07-09T04:34:08;19.50;99.90
23271;DHT22;11804;51.118;17.058;2022-07-09T04:36:36;21.00;97.10
23271;DHT22;11804;51.118;17.058;2022-07-09T04:39:04;22.00;91.50
23271;DHT22;11804;51.118;17.058;2022-07-09T04:41:32;22.10;90.00
23271;DHT22;11804;51.118;17.058;2022-07-09T04:44:00;22.20;89.00
23271;DHT22;11804;51.118;17.058;2022-07-09T04:46:28;21.70;90.40
23271;DHT22;11804;51.118;17.058;2022-07-09T04:48:57;21.10;92.20
23271;DHT22;11804;51.118;17.058;2022-07-09T04:51:25;20.80;94.70
23271;DHT22;11804;51.118;17.058;2022-07-09T04:53:52;20.60;96.20
23271;DHT22;11804;51.118;17.058;2022-07-09T04:56:20;20.90;95.40
23271;DHT22;11804;51.118;17.058;2022-07-09T04:58:47;21.40;93.50
23271;DHT22;11804;51.118;17.058;2022-07-09T05:01:19;21.70;91.80
23271;DHT22;11804;51.118;17.058;2022-07-09T05:03:47;21.60;91.60
23271;DHT22;11804;51.118;17.058;2022-07-09T05:06:16;21.50;91.50
23271;DHT22;11804;51.118;17.058;2022-07-09T05:08:44;20.80;93.70
23271;DHT22;11804;51.118;17.058;2022-07-09T05:11:12;20.30;96.50
23271;DHT22;11804;51.118;17.058;2022-07-09T05:13:40;20.20;97.80
23271;DHT22;11804;51.118;17.058;2022-07-09T05:16:08;20.30;98.50
23271;DHT22;11804;51.118;17.058;2022-07-09T05:18:37;20.70;97.20
23271;DHT22;11804;51.118;17.058;2022-07-09T05:21:05;21.20;94.40
23271;DHT22;11804;51.118;17.058;2022-07-09T05:23:32;22.00;91.50
23271;DHT22;11804;51.118;17.058;2022-07-09T05:26:00;22.90;85.60
23271;DHT22;11804;51.118;17.058;2022-07-09T05:28:28;24.30;78.70
23271;DHT22;11804;51.118;17.058;2022-07-09T05:30:55;24.50;74.20
23271;DHT22;11804;51.118;17.058;2022-07-09T05:33:23;24.90;72.70
23271;DHT22;11804;51.118;17.058;2022-07-09T05:35:50;25.40;69.00
23271;DHT22;11804;51.118;17.058;2022-07-09T05:38:18;24.50;70.60
23271;DHT22;11804;51.118;17.058;2022-07-09T05:40:46;24.60;70.90
23271;DHT22;11804;51.118;17.058;2022-07-09T05:43:13;25.00;69.70
23271;DHT22;11804;51.118;17.058;2022-07-09T05:45:41;25.50;67.50
23271;DHT22;11804;51.118;17.058;2022-07-09T05:48:08;25.30;67.00
23271;DHT22;11804;51.118;17.058;2022-07-09T05:50:36;25.10;67.70
23271;DHT22;11804;51.118;17.058;2022-07-09T05:53:03;25.60;68.00
23271;DHT22;11804;51.118;17.058;2022-07-09T05:55:31;25.90;64.90
23271;DHT22;11804;51.118;17.058;2022-07-09T05:57:58;25.80;65.20
23271;DHT22;11804;51.118;17.058;2022-07-09T06:00:26;26.00;64.30
23271;DHT22;11804;51.118;17.058;2022-07-09T06:02:54;26.70;62.70
23271;DHT22;11804;51.118;17.058;2022-07-09T06:05:21;27.00;60.70
23271;DHT22;11804;51.118;17.058;2022-07-09T06:07:49;27.70;59.60
23271;DHT22;11804;51.118;17.058;2022-07-09T06:10:16;28.90;56.10
23271;DHT22;11804;51.118;17.058;2022-07-09T06:12:43;28.70;55.60
23271;DHT22;11804;51.118;17.058;2022-07-09T06:15:11;28.20;55.60
23271;DHT22;11804;51.118;17.058;2022-07-09T06:17:39;28.20;56.10
23271;DHT22;11804;51.118;17.058;2022-07-09T06:20:07;29.10;54.10
23271;DHT22;11804;51.118;17.058;2022-07-09T06:22:35;29.40;53.20
23271;DHT22;11804;51.118;17.058;2022-07-09T06:25:06;29.00;54.00
23271;DHT22;11804;51.118;17.058;2022-07-09T06:27:33;28.30;54.60
23271;DHT22;11804;51.118;17.058;2022-07-09T06:30:01;28.10;55.40
23271;DHT22;11804;51.118;17.058;2022-07-09T06:32:29;28.00;55.60
23271;DHT22;11804;51.118;17.058;2022-07-09T06:34:56;28.20;55.20
23271;DHT22;11804;51.118;17.058;2022-07-09T06:37:25;28.30;54.40
23271;DHT22;11804;51.118;17.058;2022-07-09T06:39:53;28.60;54.10
23271;DHT22;11804;51.118;17.058;2022-07-09T06:42:22;28.60;54.10
23271;DHT22;11804;51.118;17.058;2022-07-09T06:44:50;29.30;52.80
23271;DHT22;11804;51.118;17.058;2022-07-09T06:47:17;29.50;51.60
23271;DHT22;11804;51.118;17.058;2022-07-09T06:49:45;29.80;51.60
23271;DHT22;11804;51.118;17.058;2022-07-09T06:52:14;30.40;49.80
23271;DHT22;11804;51.118;17.058;2022-07-09T06:54:41;30.20;49.00
23271;DHT22;11804;51.118;17.058;2022-07-09T06:57:09;29.70;50.30
23271;DHT22;11804;51.118;17.058;2022-07-09T06:59:36;29.60;50.40
23271;DHT22;11804;51.118;17.058;2022-07-09T07:02:04;30.10;49.60
23271;DHT22;11804;51.118;17.058;2022-07-09T07:04:32;29.50;49.80
23271;DHT22;11804;51.118;17.058;2022-07-09T07:06:59;28.90;50.40
23271;DHT22;11804;51.118;17.058;2022-07-09T07:09:27;28.20;51.10
23271;DHT22;11804;51.118;17.058;2022-07-09T07:11:55;27.70;51.70
23271;DHT22;11804;51.118;17.058;2022-07-09T07:14:23;27.60;51.40
23271;DHT22;11804;51.118;17.058;2022-07-09T07:16:52;27.70;51.70
23271;DHT22;11804;51.118;17.058;2022-07-09T07:19:19;26.70;53.90
23271;DHT22;11804;51.118;17.058;2022-07-09T07:21:49;26.80;53.40
23271;DHT22;11804;51.118;17.058;2022-07-09T07:24:17;27.50;51.70
23271;DHT22;11804;51.118;17.058;2022-07-09T07:26:44;28.50;50.10
23271;DHT22;11804;51.118;17.058;2022-07-09T07:29:12;29.10;48.90
23271;DHT22;11804;51.118;17.058;2022-07-09T07:31:39;28.90;48.30
23271;DHT22;11804;51.118;17.058;2022-07-09T07:34:07;28.40;49.40
23271;DHT22;11804;51.118;17.058;2022-07-09T07:36:34;28.80;48.70
23271;DHT22;11804;51.118;17.058;2022-07-09T07:39:02;28.50;48.50
23271;DHT22;11804;51.118;17.058;2022-07-09T07:41:30;28.50;49.30
23271;DHT22;11804;51.118;17.058;2022-07-09T07:44:00;28.10;48.80
23271;DHT22;11804;51.118;17.058;2022-07-09T07:46:28;28.00;49.40
23271;DHT22;11804;51.118;17.058;2022-07-09T07:48:57;26.90;51.10
23271;DHT22;11804;51.118;17.058;2022-07-09T07:51:27;27.50;50.20
23271;DHT22;11804;51.118;17.058;2022-07-09T07:53:54;27.80;49.20
23271;DHT22;11804;51.118;17.058;2022-07-09T07:56:22;27.70;48.40
23271;DHT22;11804;51.118;17.058;2022-07-09T07:58:49;27.60;48.70
23271;DHT22;11804;51.118;17.058;2022-07-09T08:01:17;27.10;49.00
23271;DHT22;11804;51.118;17.058;2022-07-09T08:03:45;26.50;48.60
23271;DHT22;11804;51.118;17.058;2022-07-09T08:06:12;26.80;48.80
23271;DHT22;11804;51.118;17.058;2022-07-09T08:08:40;27.70;47.90
23271;DHT22;11804;51.118;17.058;2022-07-09T08:11:07;27.90;46.10
23271;DHT22;11804;51.118;17.058;2022-07-09T08:13:35;27.90;46.20
23271;DHT22;11804;51.118;17.058;2022-07-09T08:16:02;28.40;45.50
23271;DHT22;11804;51.118;17.058;2022-07-09T08:18:32;28.40;45.50
23271;DHT22;11804;51.118;17.058;2022-07-09T08:20:59;27.50;47.30
23271;DHT22;11804;51.118;17.058;2022-07-09T08:23:27;27.10;49.50
23271;DHT22;11804;51.118;17.058;2022-07-09T08:25:54;26.80;49.60
23271;DHT22;11804;51.118;17.058;2022-07-09T08:28:22;26.90;49.90
23271;DHT22;11804;51.118;17.058;2022-07-09T08:30:50;26.80;49.40
23271;DHT22;11804;51.118;17.058;2022-07-09T08:33:17;26.10;50.20
23271;DHT22;11804;51.118;17.058;2022-07-09T08:35:45;26.50;49.20
23271;DHT22;11804;51.118;17.058;2022-07-09T08:38:13;27.40;47.10
23271;DHT22;11804;51.118;17.058;2022-07-09T08:40:40;27.90;46.10
23271;DHT22;11804;51.118;17.058;2022-07-09T08:43:10;28.20;45.90
23271;DHT22;11804;51.118;17.058;2022-07-09T08:45:38;28.30;44.80
23271;DHT22;11804;51.118;17.058;2022-07-09T08:48:06;28.70;43.90
23271;DHT22;11804;51.118;17.058;2022-07-09T08:50:35;29.10;44.00
23271;DHT22;11804;51.118;17.058;2022-07-09T08:53:03;29.30;44.20
23271;DHT22;11804;51.118;17.058;2022-07-09T08:55:32;28.70;44.60
23271;DHT22;11804;51.118;17.058;2022-07-09T08:58:01;28.50;44.40
23271;DHT22;11804;51.118;17.058;2022-07-09T09:00:29;28.70;43.60
23271;DHT22;11804;51.118;17.058;2022-07-09T09:02:58;28.70;42.20
23271;DHT22;11804;51.118;17.058;2022-07-09T09:05:25;29.00;42.90
23271;DHT22;11804;51.118;17.058;2022-07-09T09:07:53;29.10;43.20
23271;DHT22;11804;51.118;17.058;2022-07-09T09:10:24;29.20;43.00
23271;DHT22;11804;51.118;17.058;2022-07-09T09:12:59;29.50;42.40
23271;DHT22;11804;51.118;17.058;2022-07-09T09:15:28;29.60;41.90
23271;DHT22;11804;51.118;17.058;2022-07-09T09:17:57;30.30;41.60
23271;DHT22;11804;51.118;17.058;2022-07-09T09:20:25;29.80;41.30
23271;DHT22;11804;51.118;17.058;2022-07-09T09:22:54;29.20;41.70
23271;DHT22;11804;51.118;17.058;2022-07-09T09:25:23;29.30;41.20
23271;DHT22;11804;51.118;17.058;2022-07-09T09:27:58;29.20;41.00
23271;DHT22;11804;51.118;17.058;2022-07-09T09:30:29;29.30;40.70
23271;DHT22;11804;51.118;17.058;2022-07-09T09:33:02;28.80;40.80
23271;DHT22;11804;51.118;17.058;2022-07-09T09:35:34;28.20;42.30
23271;DHT22;11804;51.118;17.058;2022-07-09T09:38:02;28.40;42.80
23271;DHT22;11804;51.118;17.058;2022-07-09T09:40:31;28.70;41.90
23271;DHT22;11804;51.118;17.058;2022-07-09T09:43:01;28.30;40.60
23271;DHT22;11804;51.118;17.058;2022-07-09T09:45:30;28.00;42.40
23271;DHT22;11804;51.118;17.058;2022-07-09T09:47:59;27.20;43.20
23271;DHT22;11804;51.118;17.058;2022-07-09T09:50:26;27.50;42.70
23271;DHT22;11804;51.118;17.058;2022-07-09T09:52:55;27.70;41.80
23271;DHT22;11804;51.118;17.058;2022-07-09T09:55:23;27.80;41.50
23271;DHT22;11804;51.118;17.058;2022-07-09T09:57:52;28.00;41.90
23271;DHT22;11804;51.118;17.058;2022-07-09T10:00:20;28.30;41.60
23271;DHT22;11804;51.118;17.058;2022-07-09T10:02:48;28.00;41.40
23271;DHT22;11804;51.118;17.058;2022-07-09T10:05:18;27.60;41.30
23271;DHT22;11804;51.118;17.058;2022-07-09T10:07:45;27.60;42.90
23271;DHT22;11804;51.118;17.058;2022-07-09T10:10:20;27.60;42.90
23271;DHT22;11804;51.118;17.058;2022-07-09T10:12:48;28.00;43.50
23271;DHT22;11804;51.118;17.058;2022-07-09T10:15:23;28.10;42.10
23271;DHT22;11804;51.118;17.058;2022-07-09T10:17:52;28.20;42.00
23271;DHT22;11804;51.118;17.058;2022-07-09T10:20:33;28.30;42.60
23271;DHT22;11804;51.118;17.058;2022-07-09T10:23:05;28.10;42.40
23271;DHT22;11804;51.118;17.058;2022-07-09T10:25:44;28.30;42.10
23271;DHT22;11804;51.118;17.058;2022-07-09T10:28:03;28.60;42.40
23271;DHT22;11804;51.118;17.058;2022-07-09T10:30:32;28.50;42.70
23271;DHT22;11804;51.118;17.058;2022-07-09T10:33:13;27.80;43.80
23271;DHT22;11804;51.118;17.058;2022-07-09T10:35:48;27.60;44.10
23271;DHT22;11804;51.118;17.058;2022-07-09T10:38:18;27.70;44.70
23271;DHT22;11804;51.118;17.058;2022-07-09T10:40:59;27.90;44.30
23271;DHT22;11804;51.118;17.058;2022-07-09T10:43:49;28.10;43.30
23271;DHT22;11804;51.118;17.058;2022-07-09T10:46:14;28.10;42.80
23271;DHT22;11804;51.118;17.058;2022-07-09T10:48:44;27.90;43.50
23271;DHT22;11804;51.118;17.058;2022-07-09T10:51:22;27.60;45.10
23271;DHT22;11804;51.118;17.058;2022-07-09T10:53:50;27.80;45.60
23271;DHT22;11804;51.118;17.058;2022-07-09T10:56:21;27.50;45.50
23271;DHT22;11804;51.118;17.058;2022-07-09T10:58:50;27.10;46.10
23271;DHT22;11804;51.118;17.058;2022-07-09T11:01:22;26.70;47.10
23271;DHT22;11804;51.118;17.058;2022-07-09T11:03:52;26.60;47.20
23271;DHT22;11804;51.118;17.058;2022-07-09T11:06:20;26.50;46.60
23271;DHT22;11804;51.118;17.058;2022-07-09T11:08:48;26.40;45.90
23271;DHT22;11804;51.118;17.058;2022-07-09T11:11:25;26.40;45.50
23271;DHT22;11804;51.118;17.058;2022-07-09T11:13:53;26.30;45.00
23271;DHT22;11804;51.118;17.058;2022-07-09T11:16:24;26.30;44.30
23271;DHT22;11804;51.118;17.058;2022-07-09T11:18:53;26.20;45.10
23271;DHT22;11804;51.118;17.058;2022-07-09T11:21:26;26.20;45.40
23271;DHT22;11804;51.118;17.058;2022-07-09T11:23:54;25.90;46.20
23271;DHT22;11804;51.118;17.058;2022-07-09T11:26:22;25.70;45.80
23271;DHT22;11804;51.118;17.058;2022-07-09T11:28:49;25.70;46.20
23271;DHT22;11804;51.118;17.058;2022-07-09T11:31:18;25.60;46.70
23271;DHT22;11804;51.118;17.058;2022-07-09T11:33:47;25.60;47.00
23271;DHT22;11804;51.118;17.058;2022-07-09T11:36:44;25.70;47.20
23271;DHT22;11804;51.118;17.058;2022-07-09T11:39:30;25.90;47.30
23271;DHT22;11804;51.118;17.058;2022-07-09T11:42:01;25.70;47.30
23271;DHT22;11804;51.118;17.058;2022-07-09T11:44:32;25.60;48.30
23271;DHT22;11804;51.118;17.058;2022-07-09T11:47:10;25.60;47.20
23271;DHT22;11804;51.118;17.058;2022-07-09T11:49:43;25.60;46.70
23271;DHT22;11804;51.118;17.058;2022-07-09T11:52:24;25.70;47.00
23271;DHT22;11804;51.118;17.058;2022-07-09T11:55:06;25.60;48.10
23271;DHT22;11804;51.118;17.058;2022-07-09T11:57:36;25.70;47.90
23271;DHT22;11804;51.118;17.058;2022-07-09T12:00:19;25.60;46.90
23271;DHT22;11804;51.118;17.058;2022-07-09T12:02:38;25.60;47.60
23271;DHT22;11804;51.118;17.058;2022-07-09T12:05:07;25.50;47.30
23271;DHT22;11804;51.118;17.058;2022-07-09T12:07:36;25.50;47.70
23271;DHT22;11804;51.118;17.058;2022-07-09T12:10:06;25.60;47.90
23271;DHT22;11804;51.118;17.058;2022-07-09T12:12:36;25.50;47.70
23271;DHT22;11804;51.118;17.058;2022-07-09T12:15:05;25.80;47.70
23271;DHT22;11804;51.118;17.058;2022-07-09T12:17:35;25.90;47.60
23271;DHT22;11804;51.118;17.058;2022-07-09T12:20:04;26.00;48.40
23271;DHT22;11804;51.118;17.058;2022-07-09T12:22:34;25.70;48.80
23271;DHT22;11804;51.118;17.058;2022-07-09T12:25:01;25.80;48.30
23271;DHT22;11804;51.118;17.058;2022-07-09T12:27:29;25.90;48.40
23271;DHT22;11804;51.118;17.058;2022-07-09T12:29:57;25.80;47.80
23271;DHT22;11804;51.118;17.058;2022-07-09T12:32:24;25.60;47.40
23271;DHT22;11804;51.118;17.058;2022-07-09T12:34:52;25.40;47.70
23271;DHT22;11804;51.118;17.058;2022-07-09T12:37:20;25.40;48.10
23271;DHT22;11804;51.118;17.058;2022-07-09T12:39:48;25.30;49.10
23271;DHT22;11804;51.118;17.058;2022-07-09T12:42:17;25.40;49.00
23271;DHT22;11804;51.118;17.058;2022-07-09T12:44:47;25.30;49.00
23271;DHT22;11804;51.118;17.058;2022-07-09T12:47:15;25.40;49.10
23271;DHT22;11804;51.118;17.058;2022-07-09T12:49:47;25.40;49.30
23271;DHT22;11804;51.118;17.058;2022-07-09T12:52:14;25.30;49.40
23271;DHT22;11804;51.118;17.058;2022-07-09T12:54:42;25.40;49.80
23271;DHT22;11804;51.118;17.058;2022-07-09T12:57:10;25.10;49.80
23271;DHT22;11804;51.118;17.058;2022-07-09T12:59:38;24.90;50.40
23271;DHT22;11804;51.118;17.058;2022-07-09T13:02:06;24.90;50.70
23271;DHT22;11804;51.118;17.058;2022-07-09T13:04:34;25.10;50.20
23271;DHT22;11804;51.118;17.058;2022-07-09T13:07:03;24.90;50.40
23271;DHT22;11804;51.118;17.058;2022-07-09T13:09:30;24.90;50.70
23271;DHT22;11804;51.118;17.058;2022-07-09T13:12:00;25.10;50.80
23271;DHT22;11804;51.118;17.058;2022-07-09T13:14:28;25.00;50.50
23271;DHT22;11804;51.118;17.058;2022-07-09T13:16:55;24.90;50.80
23271;DHT22;11804;51.118;17.058;2022-07-09T13:19:23;24.70;51.30
23271;DHT22;11804;51.118;17.058;2022-07-09T13:21:50;24.70;51.30
23271;DHT22;11804;51.118;17.058;2022-07-09T13:24:18;24.80;51.50
23271;DHT22;11804;51.118;17.058;2022-07-09T13:26:46;24.80;51.70
23271;DHT22;11804;51.118;17.058;2022-07-09T13:29:13;24.60;52.00
23271;DHT22;11804;51.118;17.058;2022-07-09T13:31:41;24.50;52.40
23271;DHT22;11804;51.118;17.058;2022-07-09T13:34:08;24.40;52.70
23271;DHT22;11804;51.118;17.058;2022-07-09T13:36:36;24.40;52.90
23271;DHT22;11804;51.118;17.058;2022-07-09T13:39:04;24.20;53.40
23271;DHT22;11804;51.118;17.058;2022-07-09T13:41:32;24.20;53.70
23271;DHT22;11804;51.118;17.058;2022-07-09T13:43:59;24.20;53.70
23271;DHT22;11804;51.118;17.058;2022-07-09T13:46:28;24.10;53.90
23271;DHT22;11804;51.118;17.058;2022-07-09T13:48:55;24.20;53.90
23271;DHT22;11804;51.118;17.058;2022-07-09T13:51:23;24.20;54.10
23271;DHT22;11804;51.118;17.058;2022-07-09T13:53:51;24.00;54.40
23271;DHT22;11804;51.118;17.058;2022-07-09T13:56:18;23.90;54.80
23271;DHT22;11804;51.118;17.058;2022-07-09T13:58:47;23.80;55.10
23271;DHT22;11804;51.118;17.058;2022-07-09T14:01:15;23.90;55.00
23271;DHT22;11804;51.118;17.058;2022-07-09T14:03:43;23.90;54.60
23271;DHT22;11804;51.118;17.058;2022-07-09T14:06:12;23.80;54.80
23271;DHT22;11804;51.118;17.058;2022-07-09T14:08:40;23.80;55.20
23271;DHT22;11804;51.118;17.058;2022-07-09T14:11:08;23.80;55.50
23271;DHT22;11804;51.118;17.058;2022-07-09T14:13:36;23.90;55.00
23271;DHT22;11804;51.118;17.058;2022-07-09T14:16:03;23.90;54.30
23271;DHT22;11804;51.118;17.058;2022-07-09T14:18:31;23.90;54.20
23271;DHT22;11804;51.118;17.058;2022-07-09T14:20:59;23.80;54.40
23271;DHT22;11804;51.118;17.058;2022-07-09T14:23:27;23.80;54.50
23271;DHT22;11804;51.118;17.058;2022-07-09T14:25:56;23.80;54.50
23271;DHT22;11804;51.118;17.058;2022-07-09T14:28:23;23.40;55.30
23271;DHT22;11804;51.118;17.058;2022-07-09T14:30:53;23.50;55.70
23271;DHT22;11804;51.118;17.058;2022-07-09T14:33:20;23.50;55.40
23271;DHT22;11804;51.118;17.058;2022-07-09T14:35:52;23.50;55.20
23271;DHT22;11804;51.118;17.058;2022-07-09T14:38:21;23.60;55.60
23271;DHT22;11804;51.118;17.058;2022-07-09T14:40:48;23.80;55.50
23271;DHT22;11804;51.118;17.058;2022-07-09T14:43:16;23.80;55.20
23271;DHT22;11804;51.118;17.058;2022-07-09T14:45:43;23.90;55.20
23271;DHT22;11804;51.118;17.058;2022-07-09T14:48:11;23.90;55.00
23271;DHT22;11804;51.118;17.058;2022-07-09T14:50:40;23.90;56.00
23271;DHT22;11804;51.118;17.058;2022-07-09T14:53:08;24.10;55.20
23271;DHT22;11804;51.118;17.058;2022-07-09T14:55:35;24.00;55.30
23271;DHT22;11804;51.118;17.058;2022-07-09T14:58:03;23.90;55.60
23271;DHT22;11804;51.118;17.058;2022-07-09T15:00:31;23.90;56.00
23271;DHT22;11804;51.118;17.058;2022-07-09T15:02:59;23.80;56.30
23271;DHT22;11804;51.118;17.058;2022-07-09T15:05:26;23.80;56.60
23271;DHT22;11804;51.118;17.058;2022-07-09T15:07:54;23.90;56.40
23271;DHT22;11804;51.118;17.058;2022-07-09T15:10:22;24.00;56.50
23271;DHT22;11804;51.118;17.058;2022-07-09T15:12:51;24.00;56.50
23271;DHT22;11804;51.118;17.058;2022-07-09T15:15:18;23.80;57.20
23271;DHT22;11804;51.118;17.058;2022-07-09T15:17:46;23.90;57.30
23271;DHT22;11804;51.118;17.058;2022-07-09T15:20:14;23.70;57.70
23271;DHT22;11804;51.118;17.058;2022-07-09T15:22:42;23.70;57.70